Time;durP1;ratioP1;P1;durP2;ratioP2;P2;SDS_P1;SDS_P2;PMS_P1;PMS_P2;Temp;Humidity;BMP_temperature;BMP_pressure;BME280_temperature;BME280_humidity;BME280_pressure;Samples;Min_cycle;Max_cycle;Signal;HPM_P1;HPM_P2
2023/04/28 00:02:53;;;;;;;;;;;;;;;2.51;70.93;99392.61;131314;1281;5385157;-64
2023/04/28 00:05:57;;;;;;;;;;;;;;;2.60;70.77;99386.75;135351;1281;22541;-65
2023/04/28 00:09:00;;;;;;;;;;;;;;;2.60;71.31;99384.49;135374;1281;22522;-64
2023/04/28 00:12:06;;;;;;;;;;;;;;;2.53;71.94;99383.43;135391;1281;22508;-64
2023/04/28 00:15:09;;;;;;;;;;;;;;;2.23;73.98;99388.82;135363;1281;22519;-64
2023/04/28 00:18:12;;;;;;;;;;;;;;;2.26;74.24;99387.89;135375;1281;22504;-64
2023/04/28 00:21:16;;;;;;;;;;;;;;;2.23;74.75;99387.93;135377;1281;22500;-64
2023/04/28 00:24:28;;;;;;;;;;;;;;;2.35;74.87;99384.97;135309;1281;22511;-64
2023/04/28 00:27:31;;;;;;;;;;;;;;;2.42;75.20;99378.27;135362;1281;24065;-64
2023/04/28 00:30:34;;;;;;;;;;;;;;;2.54;75.30;99371.33;135356;1281;22572;-65
2023/04/28 00:33:37;;;;;;;;;;;;;;;2.83;75.18;99377.66;135403;1281;22507;-63
2023/04/28 00:36:40;;;;;;;;;;;;;;;2.77;75.44;99383.83;135397;1281;22514;-64
2023/04/28 00:39:45;;;;;;;;;;;;;;;2.69;75.28;99380.02;135358;1281;22544;-65
2023/04/28 00:42:48;;;;;;;;;;;;;;;2.93;74.48;99378.67;135384;1281;22653;-64
2023/04/28 00:45:51;;;;;;;;;;;;;;;3.06;74.64;99383.91;135360;1281;22616;-63
2023/04/28 00:48:54;;;;;;;;;;;;;;;3.10;74.85;99384.51;135316;1281;22504;-64
2023/04/28 00:52:02;;;;;;;;;;;;;;;3.18;74.31;99377.95;135382;1281;22510;-66
2023/04/28 00:55:05;;;;;;;;;;;;;;;3.35;73.48;99377.59;135373;1281;22519;-64
2023/04/28 00:58:08;;;;;;;;;;;;;;;3.28;73.86;99382.40;135336;1281;22500;-65
2023/04/28 01:01:12;;;;;;;;;;;;;;;3.22;73.89;99383.56;135376;1281;22497;-65
2023/04/28 01:04:15;;;;;;;;;;;;;;;3.19;73.49;99381.56;135386;1281;22512;-64
2023/04/28 01:07:18;;;;;;;;;;;;;;;3.09;74.02;99373.14;135378;1281;22515;-66
2023/04/28 01:10:21;;;;;;;;;;;;;;;3.05;74.50;99378.25;135403;1281;22543;-65
2023/04/28 01:13:23;;;;;;;;;;;;;;;3.04;74.35;99383.79;135397;1281;22522;-64
2023/04/28 01:16:26;;;;;;;;;;;;;;;3.00;74.85;99389.74;135417;1281;22519;-65
2023/04/28 01:19:29;;;;;;;;;;;;;;;3.04;74.48;99389.15;135379;1281;22528;-64
2023/04/28 01:22:32;;;;;;;;;;;;;;;3.07;74.09;99390.63;135397;1281;22524;-65
2023/04/28 01:25:34;;;;;;;;;;;;;;;3.01;74.43;99390.92;135365;1281;25263;-65
2023/04/28 01:28:37;;;;;;;;;;;;;;;2.91;75.00;99395.80;135376;1281;22507;-64
2023/04/28 01:31:40;;;;;;;;;;;;;;;2.73;75.56;99393.23;135405;1281;22508;-65
2023/04/28 01:34:43;;;;;;;;;;;;;;;3.19;73.53;99383.98;135410;1281;22529;-65
2023/04/28 01:37:45;;;;;;;;;;;;;;;3.26;73.34;99385.21;135350;1277;22511;-65
2023/04/28 01:40:48;;;;;;;;;;;;;;;3.23;73.40;99378.54;135349;1281;22536;-63
2023/04/28 01:43:51;;;;;;;;;;;;;;;3.19;73.70;99372.76;135361;1281;22510;-64
2023/04/28 01:46:54;;;;;;;;;;;;;;;3.11;74.41;99381.40;135415;1281;22503;-64
2023/04/28 01:49:56;;;;;;;;;;;;;;;3.14;74.31;99383.41;135334;1281;22518;-66
2023/04/28 01:52:59;;;;;;;;;;;;;;;3.14;74.25;99384.09;135420;1262;22504;-64
2023/04/28 01:56:03;;;;;;;;;;;;;;;3.03;74.56;99385.17;135336;1278;26588;-65
2023/04/28 01:59:13;;;;;;;;;;;;;;;3.10;74.38;99381.92;135407;1281;22500;-64
2023/04/28 02:02:15;;;;;;;;;;;;;;;3.06;75.17;99379.42;135415;1281;22505;-64
2023/04/28 02:05:18;;;;;;;;;;;;;;;2.79;76.99;99381.88;135366;1281;22499;-66
2023/04/28 02:08:21;;;;;;;;;;;;;;;2.99;76.08;99383.02;135418;1281;22528;-65
2023/04/28 02:11:24;;;;;;;;;;;;;;;2.88;76.93;99388.43;135374;1262;22519;-65
2023/04/28 02:14:27;;;;;;;;;;;;;;;2.69;78.34;99388.98;135360;1281;22554;-65
2023/04/28 02:17:30;;;;;;;;;;;;;;;2.53;79.11;99389.65;135377;1281;22515;-65
2023/04/28 02:20:34;;;;;;;;;;;;;;;2.57;79.05;99390.09;135382;1281;22519;-64
2023/04/28 02:23:36;;;;;;;;;;;;;;;2.56;79.69;99396.84;135387;1281;22513;-64
2023/04/28 02:26:40;;;;;;;;;;;;;;;2.62;79.30;99395.85;135401;1281;22531;-65
2023/04/28 02:29:42;;;;;;;;;;;;;;;2.61;79.88;99388.64;135332;1281;24223;-65
2023/04/28 02:32:45;;;;;;;;;;;;;;;2.60;79.90;99394.00;135402;1262;22594;-65
2023/04/28 02:35:48;;;;;;;;;;;;;;;2.74;79.31;99396.84;135370;1281;22522;-64
2023/04/28 02:38:51;;;;;;;;;;;;;;;2.64;80.15;99393.06;135374;1281;22583;-64
2023/04/28 02:41:57;;;;;;;;;;;;;;;2.66;80.69;99393.02;135382;1281;22527;-65
2023/04/28 02:45:00;;;;;;;;;;;;;;;2.76;79.79;99394.39;135409;1281;22507;-66
2023/04/28 02:48:03;;;;;;;;;;;;;;;2.91;79.48;99390.28;135357;1281;22740;-65
2023/04/28 02:51:06;;;;;;;;;;;;;;;3.03;80.30;99392.27;135384;1281;22508;-64
2023/04/28 02:54:09;;;;;;;;;;;;;;;3.09;79.74;99386.09;135364;1281;22528;-64
2023/04/28 02:57:13;;;;;;;;;;;;;;;3.17;79.03;99383.51;135353;1281;22514;-64
2023/04/28 03:00:15;;;;;;;;;;;;;;;3.34;78.70;99387.12;135334;1281;22507;-65
2023/04/28 03:03:18;;;;;;;;;;;;;;;3.44;78.85;99388.79;135382;1281;22520;-65
2023/04/28 03:06:22;;;;;;;;;;;;;;;3.47;78.56;99384.58;135363;1281;22515;-64
2023/04/28 03:09:25;;;;;;;;;;;;;;;3.62;78.06;99382.48;135285;1281;22525;-64
2023/04/28 03:12:28;;;;;;;;;;;;;;;3.71;77.78;99385.40;135346;1262;22734;-65
2023/04/28 03:15:31;;;;;;;;;;;;;;;3.78;77.42;99385.40;135376;1281;22529;-67
2023/04/28 03:18:41;;;;;;;;;;;;;;;3.79;77.07;99386.77;135339;1281;22518;-65
2023/04/28 03:21:45;;;;;;;;;;;;;;;3.78;77.47;99389.20;135376;1281;22503;-64
2023/04/28 03:24:47;;;;;;;;;;;;;;;3.81;77.09;99385.84;135376;1281;25358;-65
2023/04/28 03:27:52;;;;;;;;;;;;;;;3.66;77.16;99389.51;135368;1281;22510;-65
2023/04/28 03:30:55;;;;;;;;;;;;;;;3.71;76.70;99390.25;135366;1281;22519;-64
2023/04/28 03:33:58;;;;;;;;;;;;;;;3.73;76.94;99387.40;135409;1281;22496;-64
2023/04/28 03:37:02;;;;;;;;;;;;;;;3.75;76.60;99388.24;135392;1281;22493;-67
2023/04/28 03:40:04;;;;;;;;;;;;;;;3.85;76.45;99384.38;135365;1281;22508;-67
2023/04/28 03:43:11;;;;;;;;;;;;;;;3.92;76.03;99386.11;135375;1281;22509;-65
2023/04/28 03:46:15;;;;;;;;;;;;;;;3.87;76.35;99386.58;135348;1281;22553;-65
2023/04/28 03:49:18;;;;;;;;;;;;;;;3.73;77.46;99383.96;135377;1281;22615;-65
2023/04/28 03:52:21;;;;;;;;;;;;;;;3.72;77.94;99385.19;135376;1281;22553;-65
2023/04/28 03:55:25;;;;;;;;;;;;;;;3.68;77.85;99388.24;135409;1281;22503;-64
2023/04/28 03:58:29;;;;;;;;;;;;;;;3.70;77.86;99391.27;135383;1281;22511;-65
2023/04/28 04:01:32;;;;;;;;;;;;;;;3.81;77.21;99387.74;135403;1281;22508;-65
2023/04/28 04:04:35;;;;;;;;;;;;;;;3.77;77.99;99391.30;135395;1281;22500;-65
2023/04/28 04:07:38;;;;;;;;;;;;;;;3.78;78.15;99392.48;135361;1281;22496;-65
2023/04/28 04:10:42;;;;;;;;;;;;;;;3.90;78.05;99393.77;135340;1281;22516;-65
2023/04/28 04:13:44;;;;;;;;;;;;;;;4.08;77.75;99392.45;135377;1281;22519;-65
2023/04/28 04:16:47;;;;;;;;;;;;;;;4.06;78.30;99396.98;135322;1278;22503;-65
2023/04/28 04:19:52;;;;;;;;;;;;;;;4.06;78.71;99400.98;135416;1281;22503;-65
2023/04/28 04:22:55;;;;;;;;;;;;;;;4.06;78.95;99396.99;135368;1281;22503;-65
2023/04/28 04:25:58;;;;;;;;;;;;;;;4.12;78.60;99398.05;135418;1281;22524;-64
2023/04/28 04:29:01;;;;;;;;;;;;;;;4.07;78.80;99398.52;135301;1260;24219;-65
2023/04/28 04:32:04;;;;;;;;;;;;;;;4.02;79.53;99399.17;135365;1281;22510;-65
2023/04/28 04:35:07;;;;;;;;;;;;;;;4.18;78.85;99400.66;135338;1262;23987;-64
2023/04/28 04:38:12;;;;;;;;;;;;;;;4.30;80.01;99403.47;135374;1261;22780;-65
2023/04/28 04:41:15;;;;;;;;;;;;;;;4.78;79.65;99403.41;135356;1261;22530;-65
2023/04/28 04:44:18;;;;;;;;;;;;;;;5.23;78.93;99401.58;135373;1281;24401;-65
2023/04/28 04:47:28;;;;;;;;;;;;;;;5.85;77.27;99400.20;135378;1281;22524;-66
2023/04/28 04:50:31;;;;;;;;;;;;;;;6.16;76.93;99400.06;135379;1281;22504;-65
2023/04/28 04:53:34;;;;;;;;;;;;;;;6.58;76.04;99401.05;135345;1281;23008;-65
2023/04/28 04:56:37;;;;;;;;;;;;;;;6.91;75.16;99397.45;135354;1281;22503;-65
2023/04/28 04:59:40;;;;;;;;;;;;;;;7.11;75.57;99399.64;135391;1281;22553;-66
2023/04/28 05:02:43;;;;;;;;;;;;;;;7.65;74.84;99399.52;135377;1262;22515;-64
2023/04/28 05:05:47;;;;;;;;;;;;;;;7.92;73.59;99397.74;135393;1264;22541;-65
2023/04/28 05:08:50;;;;;;;;;;;;;;;8.01;71.98;99397.19;135341;1281;22508;-66
2023/04/28 05:11:53;;;;;;;;;;;;;;;8.11;72.28;99394.84;135344;1262;22506;-64
2023/04/28 05:14:57;;;;;;;;;;;;;;;8.36;71.92;99393.79;135356;1281;22532;-64
2023/04/28 05:18:00;;;;;;;;;;;;;;;8.55;71.39;99391.08;135383;1281;22531;-66
2023/04/28 05:21:03;;;;;;;;;;;;;;;8.84;70.81;99393.86;135346;1262;22515;-66
2023/04/28 05:24:07;;;;;;;;;;;;;;;8.90;70.98;99396.36;135346;1281;24192;-64
2023/04/28 05:27:10;;;;;;;;;;;;;;;8.95;71.47;99397.70;135363;1281;24196;-65
2023/04/28 05:30:14;;;;;;;;;;;;;;;9.21;71.51;99396.72;135336;1281;22523;-65
2023/04/28 05:33:22;;;;;;;;;;;;;;;9.49;71.31;99398.39;135329;1281;24315;-64
2023/04/28 05:36:26;;;;;;;;;;;;;;;9.97;69.90;99395.17;135384;1281;22515;-65
2023/04/28 05:39:29;;;;;;;;;;;;;;;10.09;70.50;99393.92;135353;1281;25204;-64
2023/04/28 05:42:32;;;;;;;;;;;;;;;10.05;70.38;99392.87;135361;1281;24489;-65
2023/04/28 05:45:34;;;;;;;;;;;;;;;10.27;70.33;99393.90;135340;1281;22551;-65
2023/04/28 05:48:37;;;;;;;;;;;;;;;10.57;68.82;99395.20;135335;1281;22511;-66
2023/04/28 05:51:40;;;;;;;;;;;;;;;10.67;68.49;99392.91;135360;1281;23876;-65
2023/04/28 05:54:45;;;;;;;;;;;;;;;11.09;67.94;99394.04;135306;1281;22527;-66
2023/04/28 05:57:48;;;;;;;;;;;;;;;11.52;66.43;99392.21;135360;1281;22538;-65
2023/04/28 06:00:52;;;;;;;;;;;;;;;11.60;67.05;99393.33;135361;1262;22513;-66
2023/04/28 06:03:56;;;;;;;;;;;;;;;12.03;64.70;99390.94;135361;1281;22542;-66
2023/04/28 06:07:03;;;;;;;;;;;;;;;12.19;64.68;99391.58;135336;1281;25438;-65
2023/04/28 06:10:06;;;;;;;;;;;;;;;12.30;64.83;99397.05;135342;1262;22647;-64
2023/04/28 06:13:14;;;;;;;;;;;;;;;12.71;64.17;99391.83;135400;1278;22516;-64
2023/04/28 06:16:18;;;;;;;;;;;;;;;12.81;63.31;99391.77;135348;1281;22503;-66
2023/04/28 06:19:21;;;;;;;;;;;;;;;13.00;63.02;99389.90;135381;1281;22559;-66
2023/04/28 06:22:24;;;;;;;;;;;;;;;13.13;60.98;99386.27;135367;1281;22507;-65
2023/04/28 06:25:27;;;;;;;;;;;;;;;13.40;58.51;99388.13;135310;1264;24196;-66
2023/04/28 06:28:51;;;;;;;;;;;;;;;13.69;58.76;99382.08;135299;1281;22497;-68
2023/04/28 06:31:56;;;;;;;;;;;;;;;14.05;59.10;99379.52;135301;1281;22666;-66
2023/04/28 06:34:59;;;;;;;;;;;;;;;14.10;58.61;99385.02;135344;1281;22514;-66
2023/04/28 06:38:03;;;;;;;;;;;;;;;14.65;59.55;99383.76;135306;1281;25378;-66
2023/04/28 06:41:06;;;;;;;;;;;;;;;15.06;58.20;99381.98;135310;1281;22511;-65
2023/04/28 06:44:09;;;;;;;;;;;;;;;15.26;57.28;99379.03;135369;1271;24471;-65
2023/04/28 06:47:13;;;;;;;;;;;;;;;15.43;56.84;99377.25;135372;1262;22530;-65
2023/04/28 06:50:16;;;;;;;;;;;;;;;15.69;55.07;99379.95;135316;1281;22500;-66
2023/04/28 06:53:19;;;;;;;;;;;;;;;15.55;53.51;99378.70;135354;1281;22531;-65
2023/04/28 06:56:22;;;;;;;;;;;;;;;15.22;54.11;99376.50;135364;1262;22523;-67
2023/04/28 06:59:25;;;;;;;;;;;;;;;15.36;54.88;99373.52;135348;1281;22511;-66
2023/04/28 07:02:28;;;;;;;;;;;;;;;15.56;53.92;99371.55;135344;1281;22509;-67
2023/04/28 07:05:32;;;;;;;;;;;;;;;15.65;50.65;99365.61;135326;1281;22500;-66
2023/04/28 07:08:35;;;;;;;;;;;;;;;15.80;51.24;99363.31;135294;1262;22606;-66
2023/04/28 07:11:42;;;;;;;;;;;;;;;16.11;50.68;99364.69;135366;1281;25849;-64
2023/04/28 07:14:45;;;;;;;;;;;;;;;16.52;50.70;99362.13;135327;1281;22506;-66
2023/04/28 07:17:48;;;;;;;;;;;;;;;16.88;48.70;99354.41;135319;1281;22883;-64
2023/04/28 07:20:51;;;;;;;;;;;;;;;17.24;48.50;99349.94;135335;1262;22511;-65
2023/04/28 07:23:55;;;;;;;;;;;;;;;17.63;47.89;99346.13;135338;1281;22502;-65
2023/04/28 07:27:00;;;;;;;;;;;;;;;17.40;45.54;99346.76;135346;1281;22523;-65
2023/04/28 07:30:03;;;;;;;;;;;;;;;17.49;47.19;99344.25;135333;1281;25244;-66
2023/04/28 07:33:07;;;;;;;;;;;;;;;17.71;46.47;99338.64;135366;1281;22528;-66
2023/04/28 07:36:10;;;;;;;;;;;;;;;17.64;45.88;99337.23;135360;1281;22511;-67
2023/04/28 07:39:14;;;;;;;;;;;;;;;17.78;45.26;99339.29;135350;1281;22511;-65
2023/04/28 07:42:19;;;;;;;;;;;;;;;17.64;44.72;99341.09;135319;1281;22460;-66
2023/04/28 07:45:23;;;;;;;;;;;;;;;17.55;44.60;99335.98;135304;1281;22531;-65
2023/04/28 07:48:27;;;;;;;;;;;;;;;17.95;44.33;99330.48;135315;1281;22558;-65
2023/04/28 07:51:30;;;;;;;;;;;;;;;18.10;44.07;99332.89;135348;1281;22503;-66
2023/04/28 07:54:34;;;;;;;;;;;;;;;18.28;43.55;99332.09;135268;1281;22519;-66
2023/04/28 07:57:38;;;;;;;;;;;;;;;18.64;43.27;99330.59;135336;1281;22520;-66
2023/04/28 08:00:42;;;;;;;;;;;;;;;18.79;42.12;99335.00;135208;1281;22507;-65
2023/04/28 08:03:46;;;;;;;;;;;;;;;18.83;42.73;99329.58;135380;1281;25338;-66
2023/04/28 08:06:50;;;;;;;;;;;;;;;19.02;41.96;99323.48;135328;1281;22513;-67
2023/04/28 08:09:54;;;;;;;;;;;;;;;19.06;40.46;99319.73;135287;1281;22516;-65
2023/04/28 08:12:58;;;;;;;;;;;;;;;19.28;40.75;99317.65;135305;1281;22556;-65
2023/04/28 08:16:01;;;;;;;;;;;;;;;19.36;39.53;99316.34;135307;1281;22514;-67
2023/04/28 08:19:04;;;;;;;;;;;;;;;18.91;39.17;99311.11;135314;1281;22517;-66
2023/04/28 08:22:07;;;;;;;;;;;;;;;18.82;40.05;99309.08;135305;1281;22513;-66
2023/04/28 08:25:10;;;;;;;;;;;;;;;18.85;40.60;99309.16;135330;1262;22520;-66
2023/04/28 08:28:14;;;;;;;;;;;;;;;19.18;40.14;99306.94;135295;1281;22505;-68
2023/04/28 08:31:17;;;;;;;;;;;;;;;19.35;39.60;99303.16;135359;1281;24321;-64
2023/04/28 08:34:20;;;;;;;;;;;;;;;19.13;39.44;99303.33;135289;1261;22513;-67
2023/04/28 08:37:23;;;;;;;;;;;;;;;19.35;39.45;99295.41;135358;1281;25382;-66
2023/04/28 08:40:28;;;;;;;;;;;;;;;19.65;38.69;99291.21;135333;1281;22507;-66
2023/04/28 08:43:31;;;;;;;;;;;;;;;19.78;37.59;99291.34;135300;1281;22502;-68
2023/04/28 08:46:34;;;;;;;;;;;;;;;19.96;38.42;99291.25;135329;1281;24045;-66
2023/04/28 08:49:38;;;;;;;;;;;;;;;20.22;36.78;99287.08;135299;1281;22548;-66
2023/04/28 08:52:44;;;;;;;;;;;;;;;20.18;36.10;99283.89;135338;1281;22507;-67
2023/04/28 08:55:48;;;;;;;;;;;;;;;20.16;38.04;99282.02;135334;1281;23275;-65
2023/04/28 08:58:53;;;;;;;;;;;;;;;20.56;37.12;99278.58;135311;1281;22501;-65
2023/04/28 09:01:57;;;;;;;;;;;;;;;20.83;35.87;99275.64;135307;1281;22613;-66
2023/04/28 09:05:00;;;;;;;;;;;;;;;20.91;35.89;99280.77;135284;1281;22504;-66
2023/04/28 09:08:05;;;;;;;;;;;;;;;21.05;35.90;99279.57;135294;1281;24425;-70
2023/04/28 09:11:30;;;;;;;;;;;;;;;21.07;35.36;99275.69;135290;1281;22529;-68
2023/04/28 09:14:33;;;;;;;;;;;;;;;21.08;35.14;99269.48;135324;1281;22511;-70
2023/04/28 09:17:36;;;;;;;;;;;;;;;21.31;35.30;99264.25;135317;1281;22487;-66
2023/04/28 09:20:39;;;;;;;;;;;;;;;21.16;34.64;99265.51;135294;1281;22498;-65
2023/04/28 09:23:42;;;;;;;;;;;;;;;21.28;34.25;99267.39;135286;1281;22518;-67
2023/04/28 09:26:45;;;;;;;;;;;;;;;21.61;34.05;99262.85;135340;1281;22500;-66
2023/04/28 09:29:48;;;;;;;;;;;;;;;21.76;33.39;99259.04;135326;1271;22517;-66
2023/04/28 09:32:51;;;;;;;;;;;;;;;21.65;33.77;99255.08;135313;1281;24214;-67
2023/04/28 09:35:54;;;;;;;;;;;;;;;21.81;33.54;99254.16;135291;1281;22497;-66
2023/04/28 09:38:57;;;;;;;;;;;;;;;21.81;32.63;99247.23;135276;1262;22504;-66
2023/04/28 09:42:02;;;;;;;;;;;;;;;20.97;31.05;99238.02;135305;1281;25850;-66
2023/04/28 09:45:05;;;;;;;;;;;;;;;20.64;34.08;99236.08;135291;1281;24387;-66
2023/04/28 09:48:09;;;;;;;;;;;;;;;21.37;34.32;99235.98;135335;1262;22574;-67
2023/04/28 09:51:12;;;;;;;;;;;;;;;21.47;31.13;99231.89;135289;1278;22516;-65
2023/04/28 09:54:15;;;;;;;;;;;;;;;20.56;32.24;99228.33;135310;1281;22510;-65
2023/04/28 09:57:18;;;;;;;;;;;;;;;20.06;32.94;99220.58;135331;1281;26615;-66
2023/04/28 10:00:21;;;;;;;;;;;;;;;19.42;33.37;99222.36;135319;1281;22573;-65
2023/04/28 10:03:24;;;;;;;;;;;;;;;19.60;34.00;99225.38;135297;1281;22505;-67
2023/04/28 10:06:27;;;;;;;;;;;;;;;19.60;33.88;99216.48;135305;1281;22543;-67
2023/04/28 10:09:32;;;;;;;;;;;;;;;19.66;33.99;99208.00;135282;1281;22570;-67
2023/04/28 10:12:37;;;;;;;;;;;;;;;19.76;33.98;99205.14;135327;1281;22503;-67
2023/04/28 10:15:40;;;;;;;;;;;;;;;19.98;34.16;99201.10;135277;1281;22508;-67
2023/04/28 10:18:43;;;;;;;;;;;;;;;20.38;34.52;99196.47;135262;1281;22617;-66
2023/04/28 10:21:46;;;;;;;;;;;;;;;20.35;33.24;99196.02;135256;1281;22501;-66
2023/04/28 10:24:49;;;;;;;;;;;;;;;20.47;33.91;99194.15;135236;1281;22588;-66
2023/04/28 10:27:52;;;;;;;;;;;;;;;20.58;33.62;99190.45;135272;1262;22517;-66
2023/04/28 10:30:54;;;;;;;;;;;;;;;20.37;33.36;99188.34;135283;1281;22507;-65
2023/04/28 10:33:57;;;;;;;;;;;;;;;20.33;32.55;99183.78;135257;1281;22530;-65
2023/04/28 10:37:01;;;;;;;;;;;;;;;20.67;33.50;99180.39;135200;1281;24212;-66
2023/04/28 10:40:05;;;;;;;;;;;;;;;21.02;33.19;99175.05;135286;1262;24364;-67
2023/04/28 10:43:07;;;;;;;;;;;;;;;20.77;32.20;99172.66;135289;1281;22510;-66
2023/04/28 10:46:13;;;;;;;;;;;;;;;20.66;32.97;99171.76;135300;1281;22511;-66
2023/04/28 10:49:17;;;;;;;;;;;;;;;20.57;33.91;99170.85;135335;1281;22523;-67
2023/04/28 10:52:21;;;;;;;;;;;;;;;20.84;33.28;99169.31;135316;1281;22703;-66
2023/04/28 10:55:24;;;;;;;;;;;;;;;21.02;32.72;99168.09;135343;1281;22508;-67
2023/04/28 10:58:27;;;;;;;;;;;;;;;21.01;32.41;99159.11;135252;1281;24398;-67
2023/04/28 11:01:33;;;;;;;;;;;;;;;21.14;33.61;99158.36;135328;1281;22563;-67
2023/04/28 11:04:36;;;;;;;;;;;;;;;21.41;32.80;99153.52;135297;1281;22523;-66
2023/04/28 11:07:39;;;;;;;;;;;;;;;21.86;32.87;99143.13;135272;1281;25366;-68
2023/04/28 11:10:42;;;;;;;;;;;;;;;22.48;31.27;99140.23;135289;1262;24214;-67
2023/04/28 11:13:46;;;;;;;;;;;;;;;22.48;31.33;99136.72;135269;1281;22552;-67
2023/04/28 11:16:50;;;;;;;;;;;;;;;22.10;31.22;99133.71;135308;1281;22543;-66
2023/04/28 11:19:55;;;;;;;;;;;;;;;21.60;31.65;99134.90;135334;1276;22658;-67
2023/04/28 11:22:58;;;;;;;;;;;;;;;21.28;32.04;99133.11;135300;1281;22508;-67
2023/04/28 11:26:01;;;;;;;;;;;;;;;21.17;32.22;99136.55;135300;1262;24267;-67
2023/04/28 11:29:04;;;;;;;;;;;;;;;21.26;32.16;99132.39;135309;1281;22517;-68
2023/04/28 11:32:07;;;;;;;;;;;;;;;21.12;31.03;99126.20;135321;1281;22511;-66
2023/04/28 11:35:10;;;;;;;;;;;;;;;21.01;31.27;99122.64;135321;1281;25258;-66
2023/04/28 11:38:13;;;;;;;;;;;;;;;20.90;30.87;99121.63;135321;1281;24391;-66
2023/04/28 11:41:16;;;;;;;;;;;;;;;20.98;31.39;99119.73;135308;1281;22558;-69
2023/04/28 11:44:19;;;;;;;;;;;;;;;21.67;31.47;99109.24;135291;1265;22534;-67
2023/04/28 11:47:25;;;;;;;;;;;;;;;22.36;31.38;99105.14;135323;1281;22524;-67
2023/04/28 11:50:28;;;;;;;;;;;;;;;22.51;30.90;99100.23;135290;1281;22530;-68
2023/04/28 11:53:33;;;;;;;;;;;;;;;22.33;30.76;99102.21;135283;1281;22530;-67
2023/04/28 11:56:46;;;;;;;;;;;;;;;;;;;;;
2023/04/28 11:59:56;;;;;;;;;;;;;;;22.71;30.97;99093.93;135299;1281;22516;-67
2023/04/28 12:02:59;;;;;;;;;;;;;;;23.13;30.12;99085.11;131212;1281;5371547;-67
2023/04/28 12:06:02;;;;;;;;;;;;;;;23.60;29.26;99072.85;135277;1265;22616;-66
2023/04/28 12:09:05;;;;;;;;;;;;;;;23.40;29.79;99082.95;135321;1266;24207;-67
2023/04/28 12:12:08;;;;;;;;;;;;;;;24.01;29.55;99080.13;135289;1262;22503;-66
2023/04/28 12:15:12;;;;;;;;;;;;;;;23.85;28.34;99079.38;135279;1281;22544;-67
2023/04/28 12:18:18;;;;;;;;;;;;;;;22.68;26.64;99084.33;135312;1281;22527;-71
2023/04/28 12:21:21;;;;;;;;;;;;;;;21.70;28.36;99083.73;135324;1271;22515;-67
2023/04/28 12:24:25;;;;;;;;;;;;;;;22.06;30.12;99075.86;135287;1281;22522;-66
2023/04/28 12:27:28;;;;;;;;;;;;;;;22.51;29.37;99072.04;135299;1281;22515;-69
2023/04/28 12:30:32;;;;;;;;;;;;;;;22.89;29.13;99066.30;135343;1281;22503;-67
2023/04/28 12:33:36;;;;;;;;;;;;;;;22.60;29.05;99057.89;135295;1281;22503;-67
2023/04/28 12:36:39;;;;;;;;;;;;;;;22.59;29.27;99057.65;135328;1281;22521;-67
2023/04/28 12:39:43;;;;;;;;;;;;;;;22.76;28.72;99055.09;135309;1281;25391;-67
2023/04/28 12:42:47;;;;;;;;;;;;;;;22.72;28.10;99049.86;135285;1281;22525;-68
2023/04/28 12:45:50;;;;;;;;;;;;;;;22.68;28.60;99049.95;135318;1261;22511;-67
2023/04/28 12:48:55;;;;;;;;;;;;;;;22.70;28.96;99044.84;135325;1281;22528;-68
2023/04/28 12:51:58;;;;;;;;;;;;;;;22.82;29.20;99040.54;135268;1281;22580;-66
2023/04/28 12:55:02;;;;;;;;;;;;;;;22.88;28.99;99040.86;135256;1281;22626;-67
2023/04/28 12:58:06;;;;;;;;;;;;;;;23.00;29.23;99037.68;135303;1281;22502;-67
2023/04/28 13:01:09;;;;;;;;;;;;;;;23.54;29.10;99035.04;135185;1281;22498;-67
2023/04/28 13:04:12;;;;;;;;;;;;;;;24.19;28.85;99030.88;135243;1281;22504;-66
2023/04/28 13:07:15;;;;;;;;;;;;;;;24.41;28.18;99022.64;135214;1281;25268;-67
2023/04/28 13:10:20;;;;;;;;;;;;;;;24.60;28.61;99023.73;135332;1281;25399;-67
2023/04/28 13:13:23;;;;;;;;;;;;;;;24.84;28.21;99024.19;135295;1281;24246;-67
2023/04/28 13:16:29;;;;;;;;;;;;;;;24.59;28.07;99025.41;135316;1281;24208;-67
2023/04/28 13:19:33;;;;;;;;;;;;;;;24.15;26.97;99021.72;135297;1281;22544;-71
2023/04/28 13:22:36;;;;;;;;;;;;;;;23.26;25.78;99017.79;135264;1281;22512;-69
2023/04/28 13:25:40;;;;;;;;;;;;;;;22.92;26.77;99014.16;135343;1281;22543;-68
2023/04/28 13:28:44;;;;;;;;;;;;;;;22.85;27.68;99011.05;135282;1281;22524;-69
2023/04/28 13:31:48;;;;;;;;;;;;;;;23.37;28.42;99006.23;135327;1281;22515;-67
2023/04/28 13:34:51;;;;;;;;;;;;;;;23.87;27.59;99003.63;135324;1281;22634;-66
2023/04/28 13:38:00;;;;;;;;;;;;;;;24.14;27.71;98995.42;135368;1281;22529;-68
2023/04/28 13:41:06;;;;;;;;;;;;;;;24.39;27.71;98986.96;135309;1281;22509;-68
2023/04/28 13:44:10;;;;;;;;;;;;;;;23.93;26.93;98987.27;135319;1281;22531;-65
2023/04/28 13:47:13;;;;;;;;;;;;;;;24.07;27.72;98985.55;135358;1281;22504;-67
2023/04/28 13:50:18;;;;;;;;;;;;;;;24.24;28.06;98983.37;135333;1281;22559;-66
2023/04/28 13:53:21;;;;;;;;;;;;;;;24.45;28.08;98979.45;135317;1281;22538;-66
2023/04/28 13:56:26;;;;;;;;;;;;;;;24.21;27.42;98978.55;135264;1281;22591;-66
2023/04/28 13:59:33;;;;;;;;;;;;;;;23.80;27.09;98972.25;135329;1281;22531;-66
2023/04/28 14:02:38;;;;;;;;;;;;;;;23.31;27.40;98968.02;135314;1281;22505;-66
2023/04/28 14:05:43;;;;;;;;;;;;;;;23.24;27.48;98965.77;135301;1281;22522;-67
2023/04/28 14:08:46;;;;;;;;;;;;;;;23.35;27.12;98965.80;135323;1281;22517;-66
2023/04/28 14:11:51;;;;;;;;;;;;;;;23.86;26.37;98963.91;135308;1281;22516;-66
2023/04/28 14:14:54;;;;;;;;;;;;;;;24.42;26.50;98959.98;135324;1281;22522;-69
2023/04/28 14:17:57;;;;;;;;;;;;;;;24.84;25.93;98957.09;135293;1281;22504;-66
2023/04/28 14:21:02;;;;;;;;;;;;;;;25.03;26.29;98949.63;135330;1281;22619;-66
2023/04/28 14:24:05;;;;;;;;;;;;;;;25.26;26.25;98941.23;135319;1281;22503;-67
2023/04/28 14:27:08;;;;;;;;;;;;;;;25.43;26.64;98937.92;135321;1281;25236;-67
2023/04/28 14:30:11;;;;;;;;;;;;;;;25.73;25.95;98931.39;135309;1273;22498;-67
2023/04/28 14:33:14;;;;;;;;;;;;;;;25.93;25.85;98927.48;135327;1281;22556;-67
2023/04/28 14:36:17;;;;;;;;;;;;;;;25.84;26.09;98926.56;135308;1281;22511;-67
2023/04/28 14:39:21;;;;;;;;;;;;;;;25.66;26.58;98926.92;135292;1281;22517;-67
2023/04/28 14:42:25;;;;;;;;;;;;;;;25.59;26.25;98925.25;135299;1281;24229;-65
2023/04/28 14:45:30;;;;;;;;;;;;;;;25.51;26.63;98925.08;135297;1281;22550;-67
2023/04/28 14:48:35;;;;;;;;;;;;;;;25.57;26.31;98922.13;135323;1281;22515;-66
2023/04/28 14:51:38;;;;;;;;;;;;;;;25.42;26.44;98923.92;135321;1281;22516;-66
2023/04/28 14:54:42;;;;;;;;;;;;;;;25.31;26.63;98924.47;135286;1281;24221;-66
2023/04/28 14:57:47;;;;;;;;;;;;;;;25.35;26.71;98923.25;135343;1281;22511;-67
2023/04/28 15:00:52;;;;;;;;;;;;;;;24.95;25.86;98917.39;135342;1281;22505;-67
2023/04/28 15:03:55;;;;;;;;;;;;;;;24.43;25.98;98918.75;135361;1281;22529;-67
2023/04/28 15:07:00;;;;;;;;;;;;;;;24.03;26.05;98913.27;135347;1281;22511;-68
2023/04/28 15:10:02;;;;;;;;;;;;;;;23.93;26.87;98916.96;135296;1281;22507;-66
2023/04/28 15:13:07;;;;;;;;;;;;;;;24.24;26.74;98909.63;135304;1281;22556;-66
2023/04/28 15:16:11;;;;;;;;;;;;;;;24.95;26.12;98909.27;135352;1281;22516;-66
2023/04/28 15:19:14;;;;;;;;;;;;;;;24.77;25.80;98910.92;135307;1281;22507;-66
2023/04/28 15:22:18;;;;;;;;;;;;;;;25.09;26.41;98908.17;135279;1281;24240;-70
2023/04/28 15:25:21;;;;;;;;;;;;;;;26.54;26.04;98899.52;135339;1281;22625;-66
2023/04/28 15:28:24;;;;;;;;;;;;;;;28.20;25.20;98900.77;135313;1281;22547;-66
2023/04/28 15:31:28;;;;;;;;;;;;;;;29.49;23.84;98896.60;135343;1281;22523;-72
2023/04/28 15:34:32;;;;;;;;;;;;;;;30.21;23.07;98898.83;135297;1281;22516;-69
2023/04/28 15:37:35;;;;;;;;;;;;;;;30.69;22.88;98895.84;135289;1281;22511;-69
2023/04/28 15:40:39;;;;;;;;;;;;;;;31.20;22.00;98887.49;135334;1281;22504;-69
2023/04/28 15:43:43;;;;;;;;;;;;;;;31.20;22.28;98893.35;135289;1281;22513;-69
2023/04/28 15:46:46;;;;;;;;;;;;;;;30.85;21.97;98893.38;135316;1281;22524;-65
2023/04/28 15:49:50;;;;;;;;;;;;;;;29.83;22.61;98893.26;135351;1281;22530;-66